Time;durP1;ratioP1;P1;durP2;ratioP2;P2;SDS_P1;SDS_P2;PMS_P1;PMS_P2;Temp;Humidity;BMP_temperature;BMP_pressure;BME280_temperature;BME280_humidity;BME280_pressure;Samples;Min_cycle;Max_cycle;Signal;HPM_P1;HPM_P2
2020/12/31 00:01:04;;;;;;;4.75;1.60;;;21.20;53.70;;;;;;5030370;28;20711;-64
2020/12/31 00:03:30;;;;;;;3.22;1.20;;;21.20;53.70;;;;;;5026630;28;20037;-64
2020/12/31 00:05:56;;;;;;;2.83;1.10;;;21.20;53.70;;;;;;5045338;28;20082;-64
2020/12/31 00:08:21;;;;;;;3.20;1.20;;;21.20;53.70;;;;;;5046891;28;20454;-64
2020/12/31 00:10:47;;;;;;;2.67;1.17;;;21.20;53.70;;;;;;5026632;28;20038;-64
2020/12/31 00:13:12;;;;;;;3.88;1.27;;;21.20;53.70;;;;;;5031107;28;20029;-64
2020/12/31 00:15:38;;;;;;;4.13;1.30;;;21.20;53.80;;;;;;5032309;28;20030;-64
2020/12/31 00:18:04;;;;;;;4.47;1.40;;;21.20;53.70;;;;;;5033895;28;20028;-64
2020/12/31 00:20:30;;;;;;;4.70;1.50;;;21.10;53.70;;;;;;5039365;28;20065;-64
2020/12/31 00:22:55;;;;;;;5.57;1.30;;;21.20;53.80;;;;;;5036125;28;20108;-64
2020/12/31 00:25:21;;;;;;;4.88;1.38;;;21.10;53.70;;;;;;5037597;28;20133;-64
2020/12/31 00:27:47;;;;;;;3.95;1.13;;;21.10;53.60;;;;;;5037057;28;20036;-64
2020/12/31 00:30:16;;;;;;;3.47;1.17;;;21.10;53.60;;;;;;5029228;28;20076;-63
2020/12/31 00:32:46;;;;;;;4.68;1.60;;;21.10;53.60;;;;;;5039076;28;20028;-64
2020/12/31 00:35:17;;;;;;;4.65;1.27;;;21.10;53.60;;;;;;5034415;28;20033;-64
2020/12/31 00:37:42;;;;;;;4.05;1.38;;;21.10;53.70;;;;;;5033633;28;20064;-64
2020/12/31 00:40:08;;;;;;;3.10;1.10;;;21.10;53.50;;;;;;5031316;28;20039;-64
2020/12/31 00:42:34;;;;;;;2.97;1.05;;;21.10;53.60;;;;;;5034288;28;20021;-64
2020/12/31 00:44:59;;;;;;;3.38;1.15;;;21.10;53.50;;;;;;5046960;28;20033;-64
2020/12/31 00:47:25;;;;;;;5.40;1.17;;;21.10;53.50;;;;;;5032353;28;20049;-64
2020/12/31 00:49:50;;;;;;;4.45;1.35;;;21.10;53.50;;;;;;5040703;28;20033;-64
2020/12/31 00:52:16;;;;;;;3.53;1.15;;;21.00;53.40;;;;;;5034123;28;20033;-64
2020/12/31 00:54:42;;;;;;;3.72;1.20;;;21.10;53.50;;;;;;5038567;28;20478;-64
2020/12/31 00:57:07;;;;;;;3.47;1.30;;;21.00;53.40;;;;;;5040598;28;20060;-64
2020/12/31 00:59:33;;;;;;;3.15;1.30;;;21.00;53.40;;;;;;5034678;28;20060;-64
2020/12/31 01:01:59;;;;;;;3.35;1.42;;;21.00;53.40;;;;;;5032522;28;20029;-64
2020/12/31 01:04:24;;;;;;;2.53;1.05;;;21.10;53.40;;;;;;5044781;28;20060;-63
2020/12/31 01:06:50;;;;;;;3.40;1.30;;;21.10;53.40;;;;;;5040742;28;20072;-64
2020/12/31 01:09:15;;;;;;;3.55;1.10;;;21.10;53.40;;;;;;5030295;28;20033;-64
2020/12/31 01:11:41;;;;;;;2.78;1.10;;;21.10;53.30;;;;;;5039795;28;20437;-64
2020/12/31 01:14:07;;;;;;;2.88;1.30;;;21.10;53.30;;;;;;5044872;28;20037;-64
2020/12/31 01:16:33;;;;;;;3.33;1.20;;;21.10;53.20;;;;;;5027744;28;20357;-64
2020/12/31 01:18:59;;;;;;;2.78;1.45;;;21.10;53.20;;;;;;5039302;28;20045;-64
2020/12/31 01:21:25;;;;;;;3.05;1.20;;;21.10;53.20;;;;;;5040488;28;20052;-64
2020/12/31 01:23:51;;;;;;;3.72;1.02;;;21.10;53.20;;;;;;5032971;28;20021;-64
2020/12/31 01:26:33;;;;;;;3.65;1.10;;;21.10;53.10;;;;;;5038850;28;20037;-64
2020/12/31 01:29:00;;;;;;;4.18;1.20;;;21.10;53.10;;;;;;5026639;28;20156;-64
2020/12/31 01:31:26;;;;;;;4.90;1.20;;;21.00;53.10;;;;;;5031057;28;20163;-64
2020/12/31 01:33:52;;;;;;;3.30;1.10;;;21.00;53.10;;;;;;5029189;28;20535;-64
2020/12/31 01:36:17;;;;;;;2.75;1.10;;;21.00;53.00;;;;;;5029031;28;20132;-64
2020/12/31 01:38:45;;;;;;;2.20;1.05;;;21.00;53.00;;;;;;5035713;28;20033;-64
2020/12/31 01:41:11;;;;;;;2.50;1.10;;;21.00;53.10;;;;;;5044947;28;20471;-64
2020/12/31 01:43:36;;;;;;;3.58;1.20;;;21.00;53.10;;;;;;5044315;28;20107;-64
2020/12/31 01:46:02;;;;;;;2.97;1.52;;;21.00;53.00;;;;;;5046058;28;20025;-64
2020/12/31 01:48:28;;;;;;;1.92;1.10;;;21.00;53.00;;;;;;5037648;28;20609;-64
2020/12/31 01:50:54;;;;;;;3.15;1.00;;;20.90;53.20;;;;;;5027554;28;20149;-64
2020/12/31 01:53:21;;;;;;;3.03;1.05;;;20.90;52.90;;;;;;5032327;28;20112;-64
2020/12/31 01:55:48;;;;;;;2.22;0.98;;;20.90;52.90;;;;;;5027105;28;20039;-64
2020/12/31 01:58:14;;;;;;;3.08;1.05;;;20.90;52.90;;;;;;5031823;28;20037;-64
2020/12/31 02:00:39;;;;;;;2.47;1.00;;;20.90;52.90;;;;;;5030108;28;20029;-64
2020/12/31 02:03:05;;;;;;;2.55;1.10;;;20.90;52.90;;;;;;5034643;28;20037;-64
2020/12/31 02:05:31;;;;;;;2.55;1.10;;;20.90;52.90;;;;;;5032405;28;20032;-64
2020/12/31 02:07:56;;;;;;;1.83;0.88;;;20.90;52.90;;;;;;5043151;28;20025;-64
2020/12/31 02:10:22;;;;;;;2.83;1.17;;;20.80;52.90;;;;;;5045645;28;20443;-64
2020/12/31 02:12:48;;;;;;;2.50;0.95;;;20.90;52.90;;;;;;5044898;28;20064;-64
2020/12/31 02:15:18;;;;;;;3.03;0.90;;;20.90;52.90;;;;;;5040074;28;20028;-64
2020/12/31 02:17:44;;;;;;;2.75;1.20;;;20.80;52.90;;;;;;5032178;28;20097;-64
2020/12/31 02:20:13;;;;;;;2.88;1.38;;;20.80;52.90;;;;;;5038703;28;20037;-64
2020/12/31 02:22:39;;;;;;;2.90;1.10;;;20.80;52.80;;;;;;5035094;28;20108;-64
2020/12/31 02:25:05;;;;;;;2.30;1.02;;;20.80;52.80;;;;;;5039382;28;20191;-64
2020/12/31 02:27:31;;;;;;;1.80;0.95;;;20.80;52.80;;;;;;5024754;28;20104;-64
2020/12/31 02:29:57;;;;;;;2.13;1.00;;;20.80;52.80;;;;;;5036500;28;20020;-64
2020/12/31 02:32:23;;;;;;;2.83;1.10;;;20.80;52.80;;;;;;5031772;28;20029;-63
2020/12/31 02:34:49;;;;;;;2.10;1.00;;;20.80;52.80;;;;;;5032278;28;20032;-64
2020/12/31 02:37:14;;;;;;;1.83;0.90;;;20.80;52.80;;;;;;5041247;28;20063;-64
2020/12/31 02:39:40;;;;;;;2.03;0.95;;;20.70;52.70;;;;;;5040369;28;20612;-64
2020/12/31 02:42:05;;;;;;;2.03;0.90;;;20.80;52.80;;;;;;5036394;28;20026;-64
2020/12/31 02:44:31;;;;;;;1.98;0.98;;;20.80;52.80;;;;;;5040933;28;20059;-64
2020/12/31 02:46:57;;;;;;;2.05;0.90;;;20.80;52.80;;;;;;5043668;28;20386;-64
2020/12/31 02:49:22;;;;;;;2.00;0.80;;;20.80;52.80;;;;;;5035490;28;20025;-64
2020/12/31 02:51:48;;;;;;;1.95;1.00;;;20.80;52.80;;;;;;5040350;28;20021;-64
2020/12/31 02:54:13;;;;;;;1.67;0.90;;;20.70;52.70;;;;;;5032793;28;20053;-64
2020/12/31 02:56:39;;;;;;;2.00;0.90;;;20.70;52.70;;;;;;5036191;28;20163;-64
2020/12/31 02:59:04;;;;;;;1.85;0.90;;;20.70;52.70;;;;;;5040996;28;20041;-64
2020/12/31 03:01:30;;;;;;;2.20;0.98;;;20.70;52.70;;;;;;5030178;28;20101;-64
2020/12/31 03:03:56;;;;;;;2.55;1.00;;;20.70;52.70;;;;;;5028650;28;20041;-64
2020/12/31 03:06:22;;;;;;;2.92;1.00;;;20.70;52.70;;;;;;5030705;28;20103;-64
2020/12/31 03:08:48;;;;;;;2.13;1.05;;;20.70;52.70;;;;;;5043173;28;20048;-64
2020/12/31 03:11:19;;;;;;;2.90;1.27;;;20.70;52.70;;;;;;5041321;28;20713;-64
2020/12/31 03:13:45;;;;;;;2.00;1.00;;;20.70;52.70;;;;;;5035431;28;20033;-64
2020/12/31 03:16:10;;;;;;;2.08;0.80;;;20.70;52.70;;;;;;5029436;28;20036;-64
2020/12/31 03:18:36;;;;;;;1.83;1.00;;;20.70;52.70;;;;;;5027304;28;20033;-64
2020/12/31 03:21:02;;;;;;;2.55;0.95;;;20.70;52.70;;;;;;5033683;28;20487;-63
2020/12/31 03:23:28;;;;;;;2.38;1.10;;;20.70;52.70;;;;;;5044222;28;20028;-64
2020/12/31 03:25:53;;;;;;;2.15;0.90;;;20.60;52.60;;;;;;5040282;28;20175;-64
2020/12/31 03:28:19;;;;;;;1.98;1.00;;;20.60;52.60;;;;;;5027608;28;20041;-64
2020/12/31 03:30:46;;;;;;;2.15;0.85;;;20.60;52.70;;;;;;5033626;28;20076;-64
2020/12/31 03:33:12;;;;;;;1.10;0.80;;;20.60;52.60;;;;;;5043104;28;20103;-64
2020/12/31 03:35:43;;;;;;;1.33;0.70;;;20.60;52.70;;;;;;5035754;28;20030;-64
2020/12/31 03:38:09;;;;;;;3.97;1.20;;;20.60;52.60;;;;;;5045162;28;20029;-64
2020/12/31 03:40:35;;;;;;;1.58;0.82;;;20.60;52.60;;;;;;5039467;28;20109;-64
2020/12/31 03:43:02;;;;;;;1.83;0.77;;;20.50;52.60;;;;;;5036159;28;20041;-64
2020/12/31 03:45:28;;;;;;;2.08;0.90;;;20.60;52.60;;;;;;5033644;28;20170;-64
2020/12/31 03:47:53;;;;;;;2.83;1.00;;;20.50;52.60;;;;;;5045737;28;20035;-64
2020/12/31 03:50:19;;;;;;;1.17;0.80;;;20.60;52.60;;;;;;5042003;28;20116;-63
2020/12/31 03:52:45;;;;;;;1.35;0.88;;;20.50;52.60;;;;;;5045353;28;20029;-64
2020/12/31 03:55:10;;;;;;;1.35;0.77;;;20.50;52.60;;;;;;5041871;28;20052;-64
2020/12/31 03:57:36;;;;;;;2.00;0.80;;;20.50;52.60;;;;;;5039015;28;20037;-63
2020/12/31 04:00:03;;;;;;;1.73;0.80;;;20.50;52.60;;;;;;5028861;28;20021;-64
2020/12/31 04:02:29;;;;;;;0.93;0.73;;;20.50;52.60;;;;;;5035690;28;20029;-64
2020/12/31 04:04:54;;;;;;;2.33;0.90;;;20.50;52.60;;;;;;5040170;28;20392;-64
2020/12/31 04:07:20;;;;;;;1.20;0.90;;;20.50;52.60;;;;;;5032357;28;20030;-63
2020/12/31 04:09:45;;;;;;;1.65;0.80;;;20.50;52.60;;;;;;5043140;28;20037;-63
2020/12/31 04:12:11;;;;;;;0.90;0.68;;;20.50;52.60;;;;;;5039824;28;20029;-63
2020/12/31 04:14:37;;;;;;;1.92;0.88;;;20.50;52.60;;;;;;5044039;28;20045;-63
2020/12/31 04:17:02;;;;;;;3.30;0.80;;;20.50;52.60;;;;;;5035890;28;20164;-63
2020/12/31 04:19:28;;;;;;;2.03;0.80;;;20.50;52.60;;;;;;5026910;28;20037;-64
2020/12/31 04:21:53;;;;;;;2.00;0.80;;;20.50;52.60;;;;;;5031791;28;20064;-63
2020/12/31 04:24:19;;;;;;;1.85;0.80;;;20.40;52.50;;;;;;5035299;28;20443;-63
2020/12/31 04:26:49;;;;;;;2.55;0.80;;;20.50;52.60;;;;;;5027919;28;20025;-63
2020/12/31 04:29:15;;;;;;;2.30;0.80;;;20.40;52.50;;;;;;5047753;28;20120;-63
2020/12/31 04:31:41;;;;;;;2.92;1.00;;;20.50;52.60;;;;;;5034733;28;20523;-63
2020/12/31 04:34:06;;;;;;;1.23;0.75;;;20.40;52.60;;;;;;5036023;28;20040;-63
2020/12/31 04:36:32;;;;;;;1.00;0.70;;;20.40;52.60;;;;;;5027450;28;20117;-63
2020/12/31 04:38:57;;;;;;;1.65;0.80;;;20.40;52.60;;;;;;5038377;28;20037;-63
2020/12/31 04:41:23;;;;;;;1.55;0.90;;;20.40;52.60;;;;;;5030965;28;20601;-63
2020/12/31 04:43:49;;;;;;;2.13;0.80;;;20.40;52.60;;;;;;5041073;28;20037;-63
2020/12/31 04:46:20;;;;;;;1.27;0.70;;;20.40;52.60;;;;;;5026476;28;20034;-63
2020/12/31 04:48:55;;;;;;;1.13;0.70;;;20.40;52.60;;;;;;5045929;28;20128;-63
2020/12/31 04:51:24;;;;;;;0.88;0.70;;;20.40;52.60;;;;;;5030386;28;20099;-64
2020/12/31 04:53:50;;;;;;;1.30;0.80;;;20.40;52.60;;;;;;5028375;28;20400;-63
2020/12/31 04:56:18;;;;;;;1.85;0.80;;;20.40;52.60;;;;;;5031769;28;20043;-64
2020/12/31 04:58:44;;;;;;;1.58;0.80;;;20.40;52.60;;;;;;5043107;28;20025;-63
2020/12/31 05:01:10;;;;;;;1.90;0.90;;;20.40;52.60;;;;;;5043203;28;20173;-63
2020/12/31 05:03:36;;;;;;;1.85;0.65;;;20.40;52.60;;;;;;5024493;28;20030;-64
2020/12/31 05:06:04;;;;;;;1.65;0.77;;;20.40;52.60;;;;;;5040596;28;20036;-63
2020/12/31 05:08:30;;;;;;;1.00;0.75;;;20.40;52.60;;;;;;5043313;28;20498;-63
2020/12/31 05:10:57;;;;;;;2.38;0.90;;;20.40;52.60;;;;;;5043299;28;20044;-64
2020/12/31 05:13:23;;;;;;;1.65;0.68;;;20.40;52.60;;;;;;5038767;28;20029;-63
2020/12/31 05:15:49;;;;;;;1.30;0.73;;;20.40;52.60;;;;;;5033943;28;20022;-64
2020/12/31 05:18:22;;;;;;;2.20;0.82;;;20.40;52.60;;;;;;5042544;28;20029;-63
2020/12/31 05:20:57;;;;;;;1.40;0.63;;;20.30;52.50;;;;;;5031473;28;20045;-63
2020/12/31 05:23:27;;;;;;;1.27;0.75;;;20.40;52.60;;;;;;5041364;28;20112;-63
2020/12/31 05:25:53;;;;;;;1.40;0.70;;;20.40;52.90;;;;;;5027852;28;20068;-63
2020/12/31 05:28:25;;;;;;;0.88;0.65;;;20.30;52.50;;;;;;5035217;28;20040;-63
2020/12/31 05:30:57;;;;;;;1.17;0.68;;;20.30;52.60;;;;;;5037708;28;20404;-63
2020/12/31 05:33:31;;;;;;;0.80;0.60;;;20.30;52.60;;;;;;5032443;28;20033;-63
2020/12/31 05:36:22;;;;;;;0.93;0.57;;;20.30;52.60;;;;;;5028974;28;20029;-63
2020/12/31 05:38:57;;;;;;;1.20;0.77;;;20.30;52.60;;;;;;5032350;28;20033;-63
2020/12/31 05:41:27;;;;;;;1.52;0.60;;;20.30;52.60;;;;;;5034046;28;20034;-63
2020/12/31 05:43:58;;;;;;;1.20;0.60;;;20.30;52.50;;;;;;5031544;28;20035;-63
2020/12/31 05:46:25;;;;;;;0.75;0.50;;;20.30;52.60;;;;;;5037454;28;20115;-63
2020/12/31 05:48:58;;;;;;;0.82;0.55;;;20.30;52.60;;;;;;5038439;28;20124;-64
2020/12/31 05:51:26;;;;;;;1.42;0.80;;;20.30;52.60;;;;;;5038715;28;20021;-63
2020/12/31 05:53:53;;;;;;;1.48;0.70;;;20.30;52.60;;;;;;5039734;28;20036;-63
2020/12/31 05:56:20;;;;;;;1.42;0.80;;;20.30;52.60;;;;;;5035649;28;20029;-63
2020/12/31 05:59:05;;;;;;;2.78;0.70;;;20.30;52.60;;;;;;5037096;28;20074;-63
2020/12/31 06:01:34;;;;;;;1.17;0.60;;;20.30;52.60;;;;;;5032595;28;20446;-63
2020/12/31 06:04:13;;;;;;;;;;;20.30;52.60;;;;;;5031523;28;20025;-63
2020/12/31 06:06:49;;;;;;;1.13;0.70;;;20.30;52.60;;;;;;5027649;28;19997;-63
2020/12/31 06:09:26;;;;;;;1.20;0.65;;;20.30;52.60;;;;;;5030934;28;20026;-64
2020/12/31 06:12:00;;;;;;;1.27;0.63;;;20.30;52.60;;;;;;5039649;28;20037;-63
2020/12/31 06:14:28;;;;;;;0.60;0.50;;;20.30;52.60;;;;;;5027812;28;20044;-63
2020/12/31 06:17:02;;;;;;;1.35;0.70;;;20.30;52.60;;;;;;5025142;28;20026;-63
2020/12/31 06:19:29;;;;;;;1.20;0.70;;;20.30;52.60;;;;;;5029916;28;20094;-63
2020/12/31 06:22:06;;;;;;;0.70;0.60;;;20.30;52.60;;;;;;5036911;28;20341;-63
2020/12/31 06:24:42;;;;;;;1.20;0.65;;;20.30;52.60;;;;;;5031621;28;20025;-63
2020/12/31 06:27:11;;;;;;;1.33;0.90;;;20.20;52.60;;;;;;5027801;28;20210;-64
2020/12/31 06:29:51;;;;;;;1.23;0.70;;;20.20;52.50;;;;;;5037282;28;20033;-63
2020/12/31 06:32:26;;;;;;;2.17;0.82;;;20.20;52.50;;;;;;5025898;28;20037;-63
2020/12/31 06:35:01;;;;;;;0.90;0.60;;;20.30;52.60;;;;;;5037725;28;20042;-63
2020/12/31 06:37:28;;;;;;;1.00;0.70;;;20.30;52.60;;;;;;5032711;28;20029;-63
2020/12/31 06:40:30;;;;;;;1.20;0.70;;;20.30;52.60;;;;;;5027518;28;20337;-63
2020/12/31 06:43:14;;;;;;;1.08;0.60;;;20.20;52.50;;;;;;5041179;28;20107;-63
2020/12/31 06:45:48;;;;;;;0.75;0.63;;;20.20;52.60;;;;;;5030496;28;20095;-63
2020/12/31 06:48:26;;;;;;;0.90;0.70;;;20.20;52.60;;;;;;5028226;28;20045;-63
2020/12/31 06:50:58;;;;;;;1.42;0.70;;;20.30;52.60;;;;;;5040138;28;20061;-63
2020/12/31 06:53:30;;;;;;;0.90;0.50;;;20.30;52.60;;;;;;5025900;28;20026;-63
2020/12/31 06:55:56;;;;;;;2.13;0.80;;;20.20;52.50;;;;;;5031388;28;20048;-63
2020/12/31 06:58:25;;;;;;;0.80;0.60;;;20.20;52.60;;;;;;5039663;28;20025;-63
2020/12/31 07:00:54;;;;;;;0.90;0.60;;;20.20;52.50;;;;;;5030933;28;20668;-64
2020/12/31 07:03:39;;;;;;;1.48;0.70;;;20.20;52.50;;;;;;5031960;28;20280;-64
2020/12/31 07:06:22;;;;;;;0.90;0.65;;;20.20;52.50;;;;;;5025378;28;20030;-64
2020/12/31 07:08:52;;;;;;;0.75;0.55;;;20.20;52.50;;;;;;5031167;28;20032;-64
2020/12/31 07:11:47;;;;;;;;;;;20.20;52.50;;;;;;5035196;28;20044;-64
2020/12/31 07:14:18;;;;;;;1.02;0.70;;;20.20;52.50;;;;;;5032035;28;19999;-64
2020/12/31 07:16:56;;;;;;;0.93;0.50;;;20.20;52.50;;;;;;5033671;28;20032;-64
2020/12/31 07:19:27;;;;;;;1.00;0.70;;;20.20;52.50;;;;;;5030249;28;20039;-64
2020/12/31 07:21:53;;;;;;;0.52;0.50;;;20.20;52.50;;;;;;5038813;28;20025;-64
2020/12/31 07:24:23;;;;;;;1.27;0.80;;;20.20;52.60;;;;;;5043517;28;20044;-64
2020/12/31 07:26:51;;;;;;;0.60;0.60;;;20.20;52.60;;;;;;5035097;28;20025;-64
2020/12/31 07:29:25;;;;;;;0.90;0.60;;;20.20;52.50;;;;;;5028683;28;20055;-64
2020/12/31 07:31:51;;;;;;;0.80;0.63;;;20.20;52.50;;;;;;5028516;28;20036;-64
2020/12/31 07:34:26;;;;;;;0.50;0.50;;;20.20;52.50;;;;;;5028123;28;20440;-64
2020/12/31 07:36:59;;;;;;;0.50;0.50;;;20.20;52.50;;;;;;5029326;28;20423;-64
2020/12/31 07:39:25;;;;;;;0.68;0.50;;;20.20;52.50;;;;;;5030429;28;20478;-64
2020/12/31 07:42:07;;;;;;;0.75;0.50;;;20.10;52.50;;;;;;5042759;28;20033;-64
2020/12/31 07:44:32;;;;;;;1.15;0.70;;;20.10;52.50;;;;;;5033010;28;20029;-64
2020/12/31 07:47:00;;;;;;;0.75;0.50;;;20.10;52.50;;;;;;5039105;28;20079;-64
2020/12/31 07:49:26;;;;;;;1.00;0.60;;;20.20;52.50;;;;;;5030742;28;20112;-64
2020/12/31 07:51:51;;;;;;;0.57;0.50;;;20.10;52.50;;;;;;5031797;28;20101;-64
2020/12/31 07:54:17;;;;;;;0.82;0.50;;;20.10;52.50;;;;;;5037506;28;20108;-64
2020/12/31 07:56:43;;;;;;;0.80;0.55;;;20.10;52.50;;;;;;5044221;28;20361;-64
2020/12/31 07:59:08;;;;;;;1.30;0.60;;;20.10;52.50;;;;;;5032018;28;20095;-64
2020/12/31 08:01:35;;;;;;;0.68;0.50;;;20.10;52.50;;;;;;5031352;28;20045;-64
2020/12/31 08:04:10;;;;;;;0.90;0.55;;;20.10;52.50;;;;;;5039817;28;20036;-64
2020/12/31 08:06:36;;;;;;;0.52;0.50;;;20.10;52.50;;;;;;5035159;28;20037;-64
2020/12/31 08:09:02;;;;;;;0.93;0.60;;;20.10;52.50;;;;;;5043076;28;20087;-64
2020/12/31 08:11:28;;;;;;;0.77;0.60;;;20.10;52.50;;;;;;5041772;28;20025;-64
2020/12/31 08:14:03;;;;;;;0.80;0.60;;;20.10;52.50;;;;;;5032732;28;20056;-64
2020/12/31 08:16:29;;;;;;;0.50;0.50;;;20.10;52.50;;;;;;5040391;28;20029;-65
2020/12/31 08:18:56;;;;;;;0.60;0.50;;;20.10;52.50;;;;;;5045232;28;20040;-64
2020/12/31 08:21:23;;;;;;;1.00;0.50;;;20.10;53.00;;;;;;5045069;28;20625;-64
2020/12/31 08:24:03;;;;;;;0.98;0.60;;;20.10;52.50;;;;;;5036645;28;20021;-64
2020/12/31 08:26:29;;;;;;;0.95;0.60;;;20.10;52.40;;;;;;5036249;28;20041;-64
2020/12/31 08:28:56;;;;;;;1.10;0.50;;;20.10;52.40;;;;;;5047095;28;20033;-64
2020/12/31 08:31:24;;;;;;;0.40;0.40;;;20.10;52.50;;;;;;5032432;28;20029;-64
2020/12/31 08:33:57;;;;;;;1.20;0.60;;;20.10;52.40;;;;;;5033899;28;20902;-64
2020/12/31 08:36:24;;;;;;;1.10;0.68;;;20.10;52.40;;;;;;5042456;28;20344;-64
2020/12/31 08:38:51;;;;;;;1.23;0.60;;;20.10;52.40;;;;;;5031699;28;20050;-64
2020/12/31 08:41:19;;;;;;;1.20;0.60;;;20.10;52.30;;;;;;5047273;28;20087;-64
2020/12/31 08:43:44;;;;;;;1.02;0.55;;;20.10;52.30;;;;;;5040645;28;20329;-64
2020/12/31 08:46:21;;;;;;;1.10;0.70;;;20.10;52.20;;;;;;5035579;28;20042;-65
2020/12/31 08:48:54;;;;;;;0.57;0.50;;;20.10;52.10;;;;;;5045684;28;20037;-64
2020/12/31 08:51:20;;;;;;;1.02;0.68;;;20.10;52.10;;;;;;5046836;28;20044;-64
2020/12/31 08:53:51;;;;;;;0.90;0.60;;;20.10;52.00;;;;;;5046371;28;20523;-64
2020/12/31 08:56:22;;;;;;;1.17;0.70;;;20.00;51.90;;;;;;5037778;28;20032;-65
2020/12/31 08:58:47;;;;;;;0.73;0.60;;;20.10;52.00;;;;;;5028378;28;20035;-65
2020/12/31 09:01:41;;;;;;;1.30;0.70;;;20.00;51.90;;;;;;5027235;28;20029;-65
2020/12/31 09:04:19;;;;;;;0.85;0.63;;;20.00;51.80;;;;;;5026833;28;20056;-65
2020/12/31 09:06:51;;;;;;;1.00;0.60;;;20.00;51.80;;;;;;5029301;28;20025;-65
2020/12/31 09:09:25;;;;;;;0.65;0.60;;;20.00;51.70;;;;;;5047533;28;20112;-65
2020/12/31 09:12:01;;;;;;;1.05;0.60;;;20.00;51.70;;;;;;5046925;28;20024;-65
2020/12/31 09:14:27;;;;;;;0.98;0.60;;;20.00;51.70;;;;;;5037157;28;20100;-65
2020/12/31 09:16:54;;;;;;;1.35;0.70;;;20.00;51.70;;;;;;5026451;28;20136;-65
2020/12/31 09:19:20;;;;;;;0.90;0.60;;;20.00;51.70;;;;;;5025777;28;20033;-64
2020/12/31 09:21:46;;;;;;;0.63;0.60;;;20.00;51.70;;;;;;5030900;28;20059;-64
2020/12/31 09:24:16;;;;;;;1.17;0.65;;;20.00;51.70;;;;;;5027708;28;20053;-64
2020/12/31 09:26:52;;;;;;;0.75;0.55;;;20.00;51.70;;;;;;5026824;28;20136;-64
2020/12/31 09:29:18;;;;;;;1.55;0.80;;;20.00;51.70;;;;;;5027065;28;20025;-65
2020/12/31 09:31:44;;;;;;;0.60;0.60;;;20.00;51.70;;;;;;5033063;28;20033;-65
2020/12/31 09:34:10;;;;;;;1.45;0.80;;;20.00;51.70;;;;;;5026233;28;20022;-65
2020/12/31 09:36:35;;;;;;;1.10;0.73;;;20.10;51.70;;;;;;5027377;28;20094;-65
2020/12/31 09:39:01;;;;;;;1.52;0.73;;;20.00;51.70;;;;;;5043451;28;20029;-65
2020/12/31 09:41:26;;;;;;;1.15;0.70;;;20.10;51.70;;;;;;5034811;28;20034;-65
2020/12/31 09:43:53;;;;;;;1.13;0.73;;;20.10;51.60;;;;;;5043113;28;20028;-65
2020/12/31 09:46:20;;;;;;;1.30;0.75;;;20.10;51.60;;;;;;5037025;28;20040;-65
2020/12/31 09:48:47;;;;;;;1.27;0.70;;;20.10;51.60;;;;;;5031356;28;20120;-65
2020/12/31 09:51:13;;;;;;;0.90;0.60;;;20.10;51.60;;;;;;5034502;28;20041;-65
2020/12/31 09:53:39;;;;;;;1.42;0.80;;;20.10;51.60;;;;;;5032788;28;20040;-65
2020/12/31 09:56:05;;;;;;;1.83;0.70;;;20.00;51.60;;;;;;5048974;28;20025;-64
2020/12/31 09:58:30;;;;;;;1.25;0.70;;;20.10;51.70;;;;;;5046085;28;20469;-64
2020/12/31 10:00:57;;;;;;;1.98;1.10;;;20.00;51.70;;;;;;5036640;28;20112;-64
2020/12/31 10:03:25;;;;;;;1.40;0.80;;;20.10;51.70;;;;;;5029415;28;20464;-65
2020/12/31 10:05:53;;;;;;;1.10;0.80;;;20.10;51.80;;;;;;5041859;28;20126;-65
2020/12/31 10:08:19;;;;;;;1.73;0.80;;;20.10;51.80;;;;;;5025235;28;20075;-63
2020/12/31 10:10:45;;;;;;;2.10;0.70;;;20.10;51.80;;;;;;5028441;28;20052;-63
2020/12/31 10:13:11;;;;;;;1.52;0.80;;;20.10;51.80;;;;;;5046513;28;20032;-64
2020/12/31 10:15:36;;;;;;;2.47;0.70;;;20.10;51.80;;;;;;5045494;28;20548;-63
2020/12/31 10:18:02;;;;;;;2.50;0.73;;;20.10;51.90;;;;;;5043002;28;20029;-63
2020/12/31 10:20:28;;;;;;;1.60;0.80;;;20.10;51.90;;;;;;5030354;28;20033;-64
2020/12/31 10:22:53;;;;;;;1.05;0.60;;;20.10;51.90;;;;;;5027168;28;20037;-63
2020/12/31 10:25:19;;;;;;;1.40;0.80;;;20.10;52.00;;;;;;5029208;28;20039;-64
2020/12/31 10:27:44;;;;;;;1.48;0.80;;;20.20;52.00;;;;;;5033105;28;20033;-63
2020/12/31 10:30:10;;;;;;;1.77;0.60;;;20.20;52.00;;;;;;5044120;28;20037;-63
2020/12/31 10:32:36;;;;;;;1.50;0.77;;;20.20;52.00;;;;;;5043074;28;20041;-63
2020/12/31 10:35:01;;;;;;;0.65;0.60;;;20.10;52.00;;;;;;5031083;28;20021;-63
2020/12/31 10:37:27;;;;;;;1.30;0.80;;;20.20;52.00;;;;;;5026423;28;20037;-63
2020/12/31 10:39:53;;;;;;;1.02;0.70;;;20.20;52.10;;;;;;5025510;28;20090;-63
2020/12/31 10:42:18;;;;;;;1.20;0.73;;;20.20;52.10;;;;;;5035721;28;20025;-63
2020/12/31 10:44:44;;;;;;;2.22;0.80;;;20.20;52.10;;;;;;5044344;28;20114;-65
2020/12/31 10:47:10;;;;;;;1.35;0.80;;;20.20;52.10;;;;;;5042956;28;20128;-63
2020/12/31 10:49:35;;;;;;;0.70;0.60;;;20.20;52.10;;;;;;5038135;28;20045;-63
2020/12/31 10:52:01;;;;;;;1.13;0.60;;;20.20;52.10;;;;;;5032928;28;20087;-66
2020/12/31 10:54:26;;;;;;;0.88;0.70;;;20.30;52.20;;;;;;5034552;28;20044;-64
2020/12/31 10:56:58;;;;;;;1.30;0.60;;;20.20;52.20;;;;;;5027967;28;20052;-65
2020/12/31 10:59:25;;;;;;;1.67;0.70;;;20.20;52.20;;;;;;5037732;28;20084;-64
2020/12/31 11:01:54;;;;;;;1.40;0.70;;;20.20;52.20;;;;;;5029817;28;20124;-64
2020/12/31 11:04:20;;;;;;;2.42;0.75;;;20.20;52.20;;;;;;5026367;28;20040;-65
2020/12/31 11:06:46;;;;;;;1.38;0.70;;;20.30;52.30;;;;;;5029863;28;20357;-64
2020/12/31 11:09:12;;;;;;;1.50;0.80;;;20.20;52.20;;;;;;5035263;28;20078;-64
2020/12/31 11:11:40;;;;;;;1.30;0.60;;;20.20;52.80;;;;;;5028478;28;20112;-64
2020/12/31 11:14:06;;;;;;;2.35;1.00;;;20.20;52.30;;;;;;5036204;28;20049;-64
2020/12/31 11:16:32;;;;;;;3.47;0.90;;;20.20;52.30;;;;;;5026328;28;20025;-64
2020/12/31 11:18:58;;;;;;;1.60;0.80;;;20.20;52.40;;;;;;5035345;28;20026;-65
2020/12/31 11:21:24;;;;;;;1.25;0.70;;;20.20;52.40;;;;;;5034093;28;20107;-64
2020/12/31 11:23:50;;;;;;;1.27;0.60;;;20.30;52.50;;;;;;5036135;28;20044;-64
2020/12/31 11:26:17;;;;;;;1.20;0.63;;;20.20;52.50;;;;;;5031017;28;20041;-64
2020/12/31 11:28:44;;;;;;;1.63;0.80;;;20.30;52.50;;;;;;5029339;28;20211;-63
2020/12/31 11:31:12;;;;;;;1.70;0.80;;;20.30;52.50;;;;;;5038614;28;20068;-62
2020/12/31 11:33:41;;;;;;;2.40;0.70;;;20.30;52.60;;;;;;5025296;28;20021;-63
2020/12/31 11:36:10;;;;;;;1.88;0.85;;;20.30;52.60;;;;;;5027643;28;20037;-64
2020/12/31 11:38:37;;;;;;;1.40;0.70;;;20.30;52.60;;;;;;5034793;28;20083;-63
2020/12/31 11:41:12;;;;;;;1.33;0.80;;;20.30;52.60;;;;;;5026979;28;20033;-63
2020/12/31 11:43:37;;;;;;;1.15;0.70;;;20.30;52.60;;;;;;5044273;28;20801;-61
2020/12/31 11:46:06;;;;;;;2.08;0.80;;;20.30;52.70;;;;;;5042313;28;20036;-61
2020/12/31 11:48:33;;;;;;;2.40;0.80;;;20.30;52.80;;;;;;5029426;28;20045;-62
2020/12/31 11:50:59;;;;;;;1.58;0.70;;;20.30;52.80;;;;;;5043316;28;20042;-63
2020/12/31 11:53:26;;;;;;;1.52;0.80;;;20.30;52.80;;;;;;5046115;28;20124;-62
2020/12/31 11:55:52;;;;;;;2.58;1.08;;;20.30;52.80;;;;;;5047592;28;20053;-61
2020/12/31 11:58:17;;;;;;;1.40;0.70;;;20.30;52.80;;;;;;5038309;28;20538;-62
2020/12/31 12:00:43;;;;;;;1.88;0.70;;;20.30;52.90;;;;;;5030464;28;20024;-62
2020/12/31 12:03:10;;;;;;;1.83;0.73;;;20.30;52.80;;;;;;5024814;28;20902;-63
2020/12/31 12:05:36;;;;;;;1.45;0.80;;;20.30;52.90;;;;;;5024936;28;20037;-61
2020/12/31 12:08:02;;;;;;;2.05;0.80;;;20.30;52.90;;;;;;5039347;28;20083;-61
2020/12/31 12:10:28;;;;;;;4.97;1.42;;;20.30;52.90;;;;;;5032909;28;20117;-62
2020/12/31 12:12:53;;;;;;;2.42;0.80;;;20.40;53.00;;;;;;5033955;28;20116;-61
2020/12/31 12:15:19;;;;;;;2.63;0.80;;;20.40;53.00;;;;;;5043363;28;20033;-63
2020/12/31 12:17:46;;;;;;;1.77;0.60;;;20.40;53.00;;;;;;5028378;28;20057;-61
2020/12/31 12:20:12;;;;;;;2.22;1.00;;;20.30;53.00;;;;;;5027956;28;20124;-62
2020/12/31 12:22:38;;;;;;;1.65;0.70;;;20.40;53.00;;;;;;5029565;28;20104;-62
2020/12/31 12:25:06;;;;;;;2.22;0.80;;;20.40;53.10;;;;;;5027600;28;20044;-62
2020/12/31 12:27:31;;;;;;;1.58;0.68;;;20.40;53.20;;;;;;5029820;28;20087;-62
2020/12/31 12:29:57;;;;;;;1.92;0.70;;;20.40;53.30;;;;;;5031646;28;20041;-62
2020/12/31 12:32:23;;;;;;;5.20;0.90;;;20.40;53.50;;;;;;5034613;28;20025;-62
2020/12/31 12:34:49;;;;;;;1.80;0.80;;;20.40;53.60;;;;;;5035277;28;20141;-61
2020/12/31 12:37:14;;;;;;;4.20;0.73;;;20.50;53.70;;;;;;5034466;28;20034;-62
2020/12/31 12:39:40;;;;;;;2.30;0.77;;;20.50;53.70;;;;;;5028289;28;20037;-62
2020/12/31 12:42:06;;;;;;;2.38;0.70;;;20.50;53.60;;;;;;5026991;28;20104;-64
2020/12/31 12:44:31;;;;;;;2.33;0.70;;;20.50;53.70;;;;;;5028443;28;20033;-63
2020/12/31 12:46:57;;;;;;;2.28;0.80;;;20.50;53.60;;;;;;5031925;28;20033;-64
2020/12/31 12:49:23;;;;;;;2.33;0.80;;;20.50;53.60;;;;;;5033772;28;20040;-62
2020/12/31 12:51:48;;;;;;;2.28;1.00;;;20.50;53.50;;;;;;5031793;28;20021;-63